Terminal Aerodrome Forecast
Issued by NWS

Home | Current Version | Previous Version | Text Only | Print | Product List | Glossary On
Versions: 1 2 3 4 5 6 7 8 9 10 11 12 13 14 15 16 17 18
006
FTUS41 KCAR 270520
TAFFVE
TAF
KFVE 270520Z 2706/2806 10005KT P6SM SKC
     FM271100 12006KT 2SM -SN OVC035
     FM271400 13009KT 1SM -SN OVC008
     FM272300 13008KT 3SM -SN OVC015
     FM280100 14009KT 2SM -SN OVC020=

USA.gov is the U.S. government's official web portal to all federal, state and local government web resources and services.